sensor_id;sensor_type;location;lat;lon;timestamp;P1;durP1;ratioP1;P2;durP2;ratioP2
68680;SDS011;55836;49.858;6.756;2023-02-07T00:01:18;8.97;;;4.43;;
68680;SDS011;55836;49.858;6.756;2023-02-07T00:03:45;11.40;;;4.70;;
68680;SDS011;55836;49.858;6.756;2023-02-07T00:06:18;8.30;;;4.57;;
68680;SDS011;55836;49.858;6.756;2023-02-07T00:08:45;12.40;;;5.00;;
68680;SDS011;55836;49.858;6.756;2023-02-07T00:11:12;10.53;;;5.53;;
68680;SDS011;55836;49.858;6.756;2023-02-07T00:13:41;9.03;;;4.73;;
68680;SDS011;55836;49.858;6.756;2023-02-07T00:16:07;9.47;;;5.17;;
68680;SDS011;55836;49.858;6.756;2023-02-07T00:18:33;10.83;;;5.30;;
68680;SDS011;55836;49.858;6.756;2023-02-07T00:21:00;10.20;;;5.03;;
68680;SDS011;55836;49.858;6.756;2023-02-07T00:23:26;14.03;;;5.50;;
68680;SDS011;55836;49.858;6.756;2023-02-07T00:25:52;6.60;;;4.40;;
68680;SDS011;55836;49.858;6.756;2023-02-07T00:28:18;12.43;;;5.40;;
68680;SDS011;55836;49.858;6.756;2023-02-07T00:30:45;11.47;;;4.87;;
68680;SDS011;55836;49.858;6.756;2023-02-07T00:33:11;8.87;;;4.90;;
68680;SDS011;55836;49.858;6.756;2023-02-07T00:35:37;9.77;;;4.70;;
68680;SDS011;55836;49.858;6.756;2023-02-07T00:38:03;8.70;;;4.73;;
68680;SDS011;55836;49.858;6.756;2023-02-07T00:40:29;8.63;;;4.53;;
68680;SDS011;55836;49.858;6.756;2023-02-07T00:42:55;9.57;;;5.10;;
68680;SDS011;55836;49.858;6.756;2023-02-07T00:45:21;14.30;;;5.10;;
68680;SDS011;55836;49.858;6.756;2023-02-07T00:47:47;9.80;;;4.97;;
68680;SDS011;55836;49.858;6.756;2023-02-07T00:50:13;10.63;;;4.60;;
68680;SDS011;55836;49.858;6.756;2023-02-07T00:52:39;8.50;;;4.90;;
68680;SDS011;55836;49.858;6.756;2023-02-07T00:55:05;11.73;;;5.60;;
68680;SDS011;55836;49.858;6.756;2023-02-07T00:57:31;10.83;;;4.87;;
68680;SDS011;55836;49.858;6.756;2023-02-07T00:59:57;11.67;;;5.50;;
68680;SDS011;55836;49.858;6.756;2023-02-07T01:02:23;8.03;;;4.70;;
68680;SDS011;55836;49.858;6.756;2023-02-07T01:04:49;9.57;;;4.97;;
68680;SDS011;55836;49.858;6.756;2023-02-07T01:07:15;10.63;;;4.50;;
68680;SDS011;55836;49.858;6.756;2023-02-07T01:09:41;10.13;;;5.03;;
68680;SDS011;55836;49.858;6.756;2023-02-07T01:12:07;8.73;;;5.07;;
68680;SDS011;55836;49.858;6.756;2023-02-07T01:14:33;10.40;;;4.67;;
68680;SDS011;55836;49.858;6.756;2023-02-07T01:16:59;9.30;;;4.93;;
68680;SDS011;55836;49.858;6.756;2023-02-07T01:19:25;7.30;;;4.20;;
68680;SDS011;55836;49.858;6.756;2023-02-07T01:21:51;11.60;;;4.57;;
68680;SDS011;55836;49.858;6.756;2023-02-07T01:24:17;8.93;;;5.70;;
68680;SDS011;55836;49.858;6.756;2023-02-07T01:26:43;10.13;;;4.73;;
68680;SDS011;55836;49.858;6.756;2023-02-07T01:29:09;9.00;;;4.37;;
68680;SDS011;55836;49.858;6.756;2023-02-07T01:31:39;9.30;;;4.90;;
68680;SDS011;55836;49.858;6.756;2023-02-07T01:34:05;16.13;;;4.70;;
68680;SDS011;55836;49.858;6.756;2023-02-07T01:36:32;7.20;;;4.80;;
68680;SDS011;55836;49.858;6.756;2023-02-07T01:38:58;8.90;;;4.93;;
68680;SDS011;55836;49.858;6.756;2023-02-07T01:41:25;10.60;;;4.43;;
68680;SDS011;55836;49.858;6.756;2023-02-07T01:43:52;7.50;;;4.93;;
68680;SDS011;55836;49.858;6.756;2023-02-07T01:46:18;8.20;;;4.27;;
68680;SDS011;55836;49.858;6.756;2023-02-07T01:48:44;8.07;;;4.63;;
68680;SDS011;55836;49.858;6.756;2023-02-07T01:51:11;8.93;;;4.70;;
68680;SDS011;55836;49.858;6.756;2023-02-07T01:53:37;6.37;;;4.57;;
68680;SDS011;55836;49.858;6.756;2023-02-07T01:56:04;7.47;;;4.07;;
68680;SDS011;55836;49.858;6.756;2023-02-07T01:58:33;9.13;;;5.03;;
68680;SDS011;55836;49.858;6.756;2023-02-07T02:01:00;6.70;;;4.57;;
68680;SDS011;55836;49.858;6.756;2023-02-07T02:03:27;7.03;;;4.33;;
68680;SDS011;55836;49.858;6.756;2023-02-07T02:05:53;12.23;;;4.83;;
68680;SDS011;55836;49.858;6.756;2023-02-07T02:08:21;5.20;;;3.90;;
68680;SDS011;55836;49.858;6.756;2023-02-07T02:10:52;18.83;;;9.27;;
68680;SDS011;55836;49.858;6.756;2023-02-07T02:13:22;9.00;;;5.70;;
68680;SDS011;55836;49.858;6.756;2023-02-07T02:18:28;8.70;;;3.83;;
68680;SDS011;55836;49.858;6.756;2023-02-07T02:23:36;5.87;;;3.67;;
68680;SDS011;55836;49.858;6.756;2023-02-07T02:26:17;8.67;;;3.63;;
68680;SDS011;55836;49.858;6.756;2023-02-07T02:34:20;5.80;;;3.50;;
68680;SDS011;55836;49.858;6.756;2023-02-07T02:41:58;8.20;;;4.17;;
68680;SDS011;55836;49.858;6.756;2023-02-07T02:44:34;4.80;;;3.40;;
68680;SDS011;55836;49.858;6.756;2023-02-07T02:47:02;6.77;;;3.67;;
68680;SDS011;55836;49.858;6.756;2023-02-07T02:49:29;7.33;;;4.27;;
68680;SDS011;55836;49.858;6.756;2023-02-07T02:51:56;8.13;;;4.07;;
68680;SDS011;55836;49.858;6.756;2023-02-07T02:54:30;6.03;;;4.20;;
68680;SDS011;55836;49.858;6.756;2023-02-07T03:02:20;7.07;;;3.90;;
68680;SDS011;55836;49.858;6.756;2023-02-07T03:10:21;4.67;;;3.37;;
68680;SDS011;55836;49.858;6.756;2023-02-07T03:12:57;5.90;;;3.47;;
68680;SDS011;55836;49.858;6.756;2023-02-07T03:20:50;5.57;;;3.53;;
68680;SDS011;55836;49.858;6.756;2023-02-07T03:23:18;6.27;;;3.87;;
68680;SDS011;55836;49.858;6.756;2023-02-07T03:25:45;8.93;;;4.20;;
68680;SDS011;55836;49.858;6.756;2023-02-07T03:28:12;6.00;;;3.67;;
68680;SDS011;55836;49.858;6.756;2023-02-07T03:30:39;5.10;;;3.60;;
68680;SDS011;55836;49.858;6.756;2023-02-07T03:33:08;5.17;;;3.50;;
68680;SDS011;55836;49.858;6.756;2023-02-07T03:38:20;5.30;;;3.37;;
68680;SDS011;55836;49.858;6.756;2023-02-07T03:40:47;5.43;;;3.57;;
68680;SDS011;55836;49.858;6.756;2023-02-07T03:43:17;6.27;;;3.50;;
68680;SDS011;55836;49.858;6.756;2023-02-07T03:45:47;5.20;;;3.27;;
68680;SDS011;55836;49.858;6.756;2023-02-07T03:48:13;4.70;;;3.47;;
68680;SDS011;55836;49.858;6.756;2023-02-07T03:50:39;5.80;;;3.17;;
68680;SDS011;55836;49.858;6.756;2023-02-07T03:53:05;4.03;;;3.30;;
68680;SDS011;55836;49.858;6.756;2023-02-07T03:55:32;5.37;;;3.57;;
68680;SDS011;55836;49.858;6.756;2023-02-07T03:57:58;6.30;;;3.50;;
68680;SDS011;55836;49.858;6.756;2023-02-07T04:00:24;4.03;;;3.00;;
68680;SDS011;55836;49.858;6.756;2023-02-07T04:02:50;3.60;;;3.00;;
68680;SDS011;55836;49.858;6.756;2023-02-07T04:05:16;3.97;;;3.10;;
68680;SDS011;55836;49.858;6.756;2023-02-07T04:07:42;4.40;;;3.33;;
68680;SDS011;55836;49.858;6.756;2023-02-07T04:10:09;4.83;;;2.97;;
68680;SDS011;55836;49.858;6.756;2023-02-07T04:12:35;5.23;;;3.77;;
68680;SDS011;55836;49.858;6.756;2023-02-07T04:15:02;5.10;;;3.07;;
68680;SDS011;55836;49.858;6.756;2023-02-07T04:17:29;6.63;;;3.40;;
68680;SDS011;55836;49.858;6.756;2023-02-07T04:19:55;6.27;;;3.60;;
68680;SDS011;55836;49.858;6.756;2023-02-07T04:22:21;5.40;;;3.27;;
68680;SDS011;55836;49.858;6.756;2023-02-07T04:24:47;4.17;;;2.87;;
68680;SDS011;55836;49.858;6.756;2023-02-07T04:27:13;3.77;;;3.17;;
68680;SDS011;55836;49.858;6.756;2023-02-07T04:29:39;5.13;;;3.23;;
68680;SDS011;55836;49.858;6.756;2023-02-07T04:32:05;4.93;;;3.27;;
68680;SDS011;55836;49.858;6.756;2023-02-07T04:34:32;4.03;;;3.00;;
68680;SDS011;55836;49.858;6.756;2023-02-07T04:36:58;4.37;;;3.00;;
68680;SDS011;55836;49.858;6.756;2023-02-07T04:39:24;4.33;;;3.27;;
68680;SDS011;55836;49.858;6.756;2023-02-07T04:41:50;3.07;;;2.53;;
68680;SDS011;55836;49.858;6.756;2023-02-07T04:44:16;3.13;;;2.83;;
68680;SDS011;55836;49.858;6.756;2023-02-07T04:46:42;4.47;;;3.17;;
68680;SDS011;55836;49.858;6.756;2023-02-07T04:49:08;4.40;;;3.60;;
68680;SDS011;55836;49.858;6.756;2023-02-07T04:51:34;4.60;;;3.27;;
68680;SDS011;55836;49.858;6.756;2023-02-07T04:54:00;2.97;;;2.63;;
68680;SDS011;55836;49.858;6.756;2023-02-07T04:56:26;3.20;;;2.83;;
68680;SDS011;55836;49.858;6.756;2023-02-07T04:58:52;4.40;;;2.97;;
68680;SDS011;55836;49.858;6.756;2023-02-07T05:01:18;4.57;;;2.90;;
68680;SDS011;55836;49.858;6.756;2023-02-07T05:03:44;3.40;;;2.87;;
68680;SDS011;55836;49.858;6.756;2023-02-07T05:06:10;6.93;;;3.27;;
68680;SDS011;55836;49.858;6.756;2023-02-07T05:08:37;4.43;;;3.13;;
68680;SDS011;55836;49.858;6.756;2023-02-07T05:11:03;4.10;;;3.10;;
68680;SDS011;55836;49.858;6.756;2023-02-07T05:13:30;3.93;;;3.03;;
68680;SDS011;55836;49.858;6.756;2023-02-07T05:15:56;3.93;;;3.13;;
68680;SDS011;55836;49.858;6.756;2023-02-07T05:18:22;4.40;;;3.37;;
68680;SDS011;55836;49.858;6.756;2023-02-07T05:20:48;5.03;;;2.90;;
68680;SDS011;55836;49.858;6.756;2023-02-07T05:23:14;4.43;;;3.20;;
68680;SDS011;55836;49.858;6.756;2023-02-07T05:25:41;5.90;;;3.33;;
68680;SDS011;55836;49.858;6.756;2023-02-07T05:28:07;3.90;;;2.97;;
68680;SDS011;55836;49.858;6.756;2023-02-07T05:30:33;3.87;;;3.23;;
68680;SDS011;55836;49.858;6.756;2023-02-07T05:32:59;3.77;;;2.87;;
68680;SDS011;55836;49.858;6.756;2023-02-07T05:35:32;4.50;;;2.90;;
68680;SDS011;55836;49.858;6.756;2023-02-07T05:37:58;4.07;;;3.50;;
68680;SDS011;55836;49.858;6.756;2023-02-07T05:40:24;4.20;;;2.93;;
68680;SDS011;55836;49.858;6.756;2023-02-07T05:42:50;3.67;;;3.20;;
68680;SDS011;55836;49.858;6.756;2023-02-07T05:45:16;3.90;;;3.20;;
68680;SDS011;55836;49.858;6.756;2023-02-07T05:47:42;3.53;;;3.17;;
68680;SDS011;55836;49.858;6.756;2023-02-07T05:50:08;5.43;;;3.30;;
68680;SDS011;55836;49.858;6.756;2023-02-07T05:52:34;3.43;;;3.10;;
68680;SDS011;55836;49.858;6.756;2023-02-07T05:55:00;3.93;;;3.23;;
68680;SDS011;55836;49.858;6.756;2023-02-07T05:57:26;4.07;;;3.43;;
68680;SDS011;55836;49.858;6.756;2023-02-07T05:59:52;4.73;;;3.23;;
68680;SDS011;55836;49.858;6.756;2023-02-07T06:02:18;4.07;;;3.37;;
68680;SDS011;55836;49.858;6.756;2023-02-07T06:04:44;4.57;;;3.40;;
68680;SDS011;55836;49.858;6.756;2023-02-07T06:07:10;4.53;;;3.17;;
68680;SDS011;55836;49.858;6.756;2023-02-07T06:09:36;5.37;;;3.50;;
68680;SDS011;55836;49.858;6.756;2023-02-07T06:12:02;3.70;;;3.30;;
68680;SDS011;55836;49.858;6.756;2023-02-07T06:14:28;5.40;;;3.70;;
68680;SDS011;55836;49.858;6.756;2023-02-07T06:16:54;6.23;;;4.07;;
68680;SDS011;55836;49.858;6.756;2023-02-07T06:19:20;5.63;;;4.43;;
68680;SDS011;55836;49.858;6.756;2023-02-07T06:21:46;5.83;;;3.13;;
68680;SDS011;55836;49.858;6.756;2023-02-07T06:24:13;5.90;;;3.93;;
68680;SDS011;55836;49.858;6.756;2023-02-07T06:26:39;4.53;;;3.63;;
68680;SDS011;55836;49.858;6.756;2023-02-07T06:29:05;5.07;;;3.53;;
68680;SDS011;55836;49.858;6.756;2023-02-07T06:31:31;4.93;;;3.50;;
68680;SDS011;55836;49.858;6.756;2023-02-07T06:33:58;4.07;;;3.60;;
68680;SDS011;55836;49.858;6.756;2023-02-07T06:36:24;5.30;;;4.23;;
68680;SDS011;55836;49.858;6.756;2023-02-07T06:38:50;4.90;;;3.60;;
68680;SDS011;55836;49.858;6.756;2023-02-07T06:41:20;4.50;;;3.80;;
68680;SDS011;55836;49.858;6.756;2023-02-07T06:43:46;4.63;;;3.73;;
68680;SDS011;55836;49.858;6.756;2023-02-07T06:46:12;4.87;;;3.83;;
68680;SDS011;55836;49.858;6.756;2023-02-07T06:48:38;5.90;;;4.57;;
68680;SDS011;55836;49.858;6.756;2023-02-07T06:51:04;4.10;;;3.33;;
68680;SDS011;55836;49.858;6.756;2023-02-07T06:53:30;6.53;;;4.07;;
68680;SDS011;55836;49.858;6.756;2023-02-07T06:55:56;5.07;;;3.60;;
68680;SDS011;55836;49.858;6.756;2023-02-07T06:58:22;5.60;;;4.13;;
68680;SDS011;55836;49.858;6.756;2023-02-07T07:00:48;4.97;;;3.97;;
68680;SDS011;55836;49.858;6.756;2023-02-07T07:03:14;4.93;;;3.73;;
68680;SDS011;55836;49.858;6.756;2023-02-07T07:05:41;5.37;;;4.40;;
68680;SDS011;55836;49.858;6.756;2023-02-07T07:08:08;6.73;;;4.53;;
68680;SDS011;55836;49.858;6.756;2023-02-07T07:10:34;6.60;;;4.67;;
68680;SDS011;55836;49.858;6.756;2023-02-07T07:13:00;5.77;;;3.97;;
68680;SDS011;55836;49.858;6.756;2023-02-07T07:15:26;4.83;;;3.90;;
68680;SDS011;55836;49.858;6.756;2023-02-07T07:17:52;4.33;;;3.90;;
68680;SDS011;55836;49.858;6.756;2023-02-07T07:20:18;5.07;;;3.93;;
68680;SDS011;55836;49.858;6.756;2023-02-07T07:22:44;4.63;;;3.97;;
68680;SDS011;55836;49.858;6.756;2023-02-07T07:25:10;7.13;;;4.43;;
68680;SDS011;55836;49.858;6.756;2023-02-07T07:27:36;5.30;;;4.30;;
68680;SDS011;55836;49.858;6.756;2023-02-07T07:30:02;6.33;;;4.60;;
68680;SDS011;55836;49.858;6.756;2023-02-07T07:32:28;7.50;;;4.60;;
68680;SDS011;55836;49.858;6.756;2023-02-07T07:34:56;6.03;;;4.97;;
68680;SDS011;55836;49.858;6.756;2023-02-07T07:37:22;4.83;;;3.93;;
68680;SDS011;55836;49.858;6.756;2023-02-07T07:39:48;7.97;;;5.00;;
68680;SDS011;55836;49.858;6.756;2023-02-07T07:42:14;6.73;;;4.27;;
68680;SDS011;55836;49.858;6.756;2023-02-07T07:44:40;7.37;;;5.47;;
68680;SDS011;55836;49.858;6.756;2023-02-07T07:47:06;5.33;;;4.03;;
68680;SDS011;55836;49.858;6.756;2023-02-07T07:49:32;7.17;;;5.30;;
68680;SDS011;55836;49.858;6.756;2023-02-07T07:51:58;6.27;;;5.43;;
68680;SDS011;55836;49.858;6.756;2023-02-07T07:54:24;5.57;;;4.27;;
68680;SDS011;55836;49.858;6.756;2023-02-07T07:56:50;8.60;;;5.30;;
68680;SDS011;55836;49.858;6.756;2023-02-07T07:59:16;6.47;;;4.47;;
68680;SDS011;55836;49.858;6.756;2023-02-07T08:01:43;6.20;;;4.63;;
68680;SDS011;55836;49.858;6.756;2023-02-07T08:04:09;5.77;;;5.03;;
68680;SDS011;55836;49.858;6.756;2023-02-07T08:06:35;6.63;;;4.90;;
68680;SDS011;55836;49.858;6.756;2023-02-07T08:09:01;7.23;;;5.10;;
68680;SDS011;55836;49.858;6.756;2023-02-07T08:11:27;7.97;;;4.43;;
68680;SDS011;55836;49.858;6.756;2023-02-07T08:13:53;7.23;;;5.10;;
68680;SDS011;55836;49.858;6.756;2023-02-07T08:16:19;6.57;;;4.47;;
68680;SDS011;55836;49.858;6.756;2023-02-07T08:18:45;8.10;;;5.43;;
68680;SDS011;55836;49.858;6.756;2023-02-07T08:21:11;7.40;;;4.90;;
68680;SDS011;55836;49.858;6.756;2023-02-07T08:23:37;7.00;;;5.27;;
68680;SDS011;55836;49.858;6.756;2023-02-07T08:26:04;6.43;;;5.00;;
68680;SDS011;55836;49.858;6.756;2023-02-07T08:28:31;6.53;;;4.87;;
68680;SDS011;55836;49.858;6.756;2023-02-07T08:31:00;6.97;;;5.17;;
68680;SDS011;55836;49.858;6.756;2023-02-07T08:33:26;8.50;;;5.33;;
68680;SDS011;55836;49.858;6.756;2023-02-07T08:35:52;6.83;;;5.73;;
68680;SDS011;55836;49.858;6.756;2023-02-07T08:38:18;8.00;;;5.27;;
68680;SDS011;55836;49.858;6.756;2023-02-07T08:40:45;7.93;;;5.63;;
68680;SDS011;55836;49.858;6.756;2023-02-07T08:43:11;7.87;;;5.87;;
68680;SDS011;55836;49.858;6.756;2023-02-07T08:45:38;7.20;;;5.73;;
68680;SDS011;55836;49.858;6.756;2023-02-07T08:48:04;9.27;;;5.87;;
68680;SDS011;55836;49.858;6.756;2023-02-07T08:50:30;8.20;;;5.80;;
68680;SDS011;55836;49.858;6.756;2023-02-07T08:52:56;7.07;;;5.50;;
68680;SDS011;55836;49.858;6.756;2023-02-07T08:55:22;9.03;;;5.97;;
68680;SDS011;55836;49.858;6.756;2023-02-07T08:57:48;12.50;;;5.77;;
68680;SDS011;55836;49.858;6.756;2023-02-07T09:00:14;6.53;;;5.47;;
68680;SDS011;55836;49.858;6.756;2023-02-07T09:02:41;8.23;;;5.97;;
68680;SDS011;55836;49.858;6.756;2023-02-07T09:05:08;8.90;;;5.40;;
68680;SDS011;55836;49.858;6.756;2023-02-07T09:07:34;8.03;;;5.73;;
68680;SDS011;55836;49.858;6.756;2023-02-07T09:10:00;8.73;;;5.77;;
68680;SDS011;55836;49.858;6.756;2023-02-07T09:12:28;9.17;;;5.87;;
68680;SDS011;55836;49.858;6.756;2023-02-07T09:14:55;8.47;;;5.90;;
68680;SDS011;55836;49.858;6.756;2023-02-07T09:17:21;7.90;;;6.17;;
68680;SDS011;55836;49.858;6.756;2023-02-07T09:19:47;9.17;;;5.90;;
68680;SDS011;55836;49.858;6.756;2023-02-07T09:22:13;8.27;;;5.70;;
68680;SDS011;55836;49.858;6.756;2023-02-07T09:24:39;7.60;;;6.17;;
68680;SDS011;55836;49.858;6.756;2023-02-07T09:27:05;8.50;;;6.13;;
68680;SDS011;55836;49.858;6.756;2023-02-07T09:29:31;8.87;;;6.03;;
68680;SDS011;55836;49.858;6.756;2023-02-07T09:31:57;9.20;;;6.13;;
68680;SDS011;55836;49.858;6.756;2023-02-07T09:34:23;9.43;;;6.77;;
68680;SDS011;55836;49.858;6.756;2023-02-07T09:36:49;8.60;;;6.50;;
68680;SDS011;55836;49.858;6.756;2023-02-07T09:39:16;9.50;;;7.03;;
68680;SDS011;55836;49.858;6.756;2023-02-07T09:47:18;9.83;;;6.50;;
68680;SDS011;55836;49.858;6.756;2023-02-07T09:50:28;10.80;;;7.60;;
68680;SDS011;55836;49.858;6.756;2023-02-07T09:52:35;11.80;;;6.73;;
68680;SDS011;55836;49.858;6.756;2023-02-07T09:55:02;10.63;;;6.90;;
68680;SDS011;55836;49.858;6.756;2023-02-07T09:57:31;10.30;;;6.40;;
68680;SDS011;55836;49.858;6.756;2023-02-07T10:00:20;11.43;;;6.90;;
68680;SDS011;55836;49.858;6.756;2023-02-07T10:05:28;8.53;;;6.43;;
68680;SDS011;55836;49.858;6.756;2023-02-07T10:07:54;9.93;;;6.83;;
68680;SDS011;55836;49.858;6.756;2023-02-07T10:10:25;13.30;;;7.57;;
68680;SDS011;55836;49.858;6.756;2023-02-07T10:13:05;9.10;;;6.70;;
68680;SDS011;55836;49.858;6.756;2023-02-07T10:23:32;9.53;;;7.00;;
68680;SDS011;55836;49.858;6.756;2023-02-07T10:28:38;10.87;;;6.93;;
68680;SDS011;55836;49.858;6.756;2023-02-07T10:31:09;10.90;;;6.93;;
68680;SDS011;55836;49.858;6.756;2023-02-07T10:33:38;10.37;;;7.30;;
68680;SDS011;55836;49.858;6.756;2023-02-07T10:36:06;12.20;;;7.33;;
68680;SDS011;55836;49.858;6.756;2023-02-07T10:43:46;11.40;;;7.17;;
68680;SDS011;55836;49.858;6.756;2023-02-07T10:46:13;10.70;;;7.57;;
68680;SDS011;55836;49.858;6.756;2023-02-07T10:48:40;10.03;;;6.83;;
68680;SDS011;55836;49.858;6.756;2023-02-07T10:56:26;11.83;;;8.33;;
68680;SDS011;55836;49.858;6.756;2023-02-07T10:58:54;13.40;;;7.90;;
68680;SDS011;55836;49.858;6.756;2023-02-07T11:01:21;11.30;;;7.73;;
68680;SDS011;55836;49.858;6.756;2023-02-07T11:03:48;11.50;;;10.30;;
68680;SDS011;55836;49.858;6.756;2023-02-07T11:06:15;11.77;;;7.70;;
68680;SDS011;55836;49.858;6.756;2023-02-07T11:08:48;10.53;;;7.47;;
68680;SDS011;55836;49.858;6.756;2023-02-07T11:11:30;11.87;;;7.23;;
68680;SDS011;55836;49.858;6.756;2023-02-07T11:14:01;11.33;;;7.23;;
68680;SDS011;55836;49.858;6.756;2023-02-07T11:16:27;11.17;;;7.50;;
68680;SDS011;55836;49.858;6.756;2023-02-07T11:19:00;10.73;;;7.17;;
68680;SDS011;55836;49.858;6.756;2023-02-07T11:23:59;11.37;;;7.53;;
68680;SDS011;55836;49.858;6.756;2023-02-07T11:26:26;12.13;;;7.87;;
68680;SDS011;55836;49.858;6.756;2023-02-07T11:29:02;12.60;;;8.27;;
68680;SDS011;55836;49.858;6.756;2023-02-07T11:31:29;13.13;;;7.67;;
68680;SDS011;55836;49.858;6.756;2023-02-07T11:34:06;12.50;;;8.20;;
68680;SDS011;55836;49.858;6.756;2023-02-07T11:36:32;8.87;;;6.57;;
68680;SDS011;55836;49.858;6.756;2023-02-07T11:38:59;11.00;;;7.97;;
68680;SDS011;55836;49.858;6.756;2023-02-07T11:41:29;10.47;;;7.47;;
68680;SDS011;55836;49.858;6.756;2023-02-07T11:43:57;10.30;;;7.63;;
68680;SDS011;55836;49.858;6.756;2023-02-07T11:46:34;12.30;;;7.37;;
68680;SDS011;55836;49.858;6.756;2023-02-07T11:49:03;10.63;;;7.93;;
68680;SDS011;55836;49.858;6.756;2023-02-07T11:51:30;9.43;;;7.10;;
68680;SDS011;55836;49.858;6.756;2023-02-07T11:53:58;9.43;;;7.07;;
68680;SDS011;55836;49.858;6.756;2023-02-07T11:56:30;11.60;;;7.30;;
68680;SDS011;55836;49.858;6.756;2023-02-07T11:58:57;12.80;;;7.50;;
68680;SDS011;55836;49.858;6.756;2023-02-07T12:01:25;10.90;;;7.40;;
68680;SDS011;55836;49.858;6.756;2023-02-07T12:03:54;10.27;;;6.67;;
68680;SDS011;55836;49.858;6.756;2023-02-07T12:06:36;9.70;;;7.37;;
68680;SDS011;55836;49.858;6.756;2023-02-07T12:09:03;10.57;;;6.70;;
68680;SDS011;55836;49.858;6.756;2023-02-07T12:11:32;10.33;;;6.67;;
68680;SDS011;55836;49.858;6.756;2023-02-07T12:14:15;10.00;;;6.50;;
68680;SDS011;55836;49.858;6.756;2023-02-07T12:16:45;10.07;;;6.97;;
68680;SDS011;55836;49.858;6.756;2023-02-07T12:19:17;8.33;;;5.83;;
68680;SDS011;55836;49.858;6.756;2023-02-07T12:26:51;12.20;;;6.47;;
68680;SDS011;55836;49.858;6.756;2023-02-07T12:36:58;9.13;;;6.87;;
68680;SDS011;55836;49.858;6.756;2023-02-07T12:39:27;6.93;;;5.47;;
68680;SDS011;55836;49.858;6.756;2023-02-07T12:42:01;9.60;;;5.50;;
68680;SDS011;55836;49.858;6.756;2023-02-07T12:44:29;11.00;;;6.70;;
68680;SDS011;55836;49.858;6.756;2023-02-07T12:47:11;8.13;;;6.03;;
68680;SDS011;55836;49.858;6.756;2023-02-07T12:58:06;9.87;;;5.80;;
68680;SDS011;55836;49.858;6.756;2023-02-07T13:06:08;6.23;;;5.17;;
68680;SDS011;55836;49.858;6.756;2023-02-07T13:08:41;8.70;;;5.37;;
68680;SDS011;55836;49.858;6.756;2023-02-07T13:16:25;8.57;;;5.53;;
68680;SDS011;55836;49.858;6.756;2023-02-07T13:23:50;7.00;;;5.03;;
68680;SDS011;55836;49.858;6.756;2023-02-07T13:26:19;6.67;;;5.13;;
68680;SDS011;55836;49.858;6.756;2023-02-07T13:34:03;8.40;;;4.27;;
68680;SDS011;55836;49.858;6.756;2023-02-07T13:36:34;6.87;;;5.00;;
68680;SDS011;55836;49.858;6.756;2023-02-07T13:44:34;5.97;;;4.30;;
68680;SDS011;55836;49.858;6.756;2023-02-07T13:47:08;6.13;;;4.40;;
68680;SDS011;55836;49.858;6.756;2023-02-07T13:57:01;6.87;;;4.50;;
68680;SDS011;55836;49.858;6.756;2023-02-07T14:02:35;7.40;;;4.63;;
68680;SDS011;55836;49.858;6.756;2023-02-07T14:05:08;8.50;;;4.53;;
68680;SDS011;55836;49.858;6.756;2023-02-07T14:07:34;5.33;;;4.23;;
68680;SDS011;55836;49.858;6.756;2023-02-07T14:10:02;6.17;;;4.63;;
68680;SDS011;55836;49.858;6.756;2023-02-07T14:12:33;6.30;;;4.47;;
68680;SDS011;55836;49.858;6.756;2023-02-07T14:17:55;7.70;;;4.23;;
68680;SDS011;55836;49.858;6.756;2023-02-07T14:28:16;7.37;;;4.37;;
68680;SDS011;55836;49.858;6.756;2023-02-07T14:33:18;5.83;;;3.90;;
68680;SDS011;55836;49.858;6.756;2023-02-07T14:38:36;6.50;;;4.13;;
68680;SDS011;55836;49.858;6.756;2023-02-07T14:41:09;4.80;;;3.27;;
68680;SDS011;55836;49.858;6.756;2023-02-07T14:43:50;6.03;;;4.00;;
68680;SDS011;55836;49.858;6.756;2023-02-07T14:46:24;6.37;;;4.73;;
68680;SDS011;55836;49.858;6.756;2023-02-07T14:48:52;6.00;;;4.43;;
68680;SDS011;55836;49.858;6.756;2023-02-07T14:51:22;6.43;;;4.07;;
68680;SDS011;55836;49.858;6.756;2023-02-07T14:53:54;6.67;;;3.60;;
68680;SDS011;55836;49.858;6.756;2023-02-07T14:56:30;4.13;;;3.50;;
68680;SDS011;55836;49.858;6.756;2023-02-07T14:59:02;6.17;;;3.80;;
68680;SDS011;55836;49.858;6.756;2023-02-07T15:01:28;5.33;;;3.67;;
68680;SDS011;55836;49.858;6.756;2023-02-07T15:04:01;6.33;;;4.23;;
68680;SDS011;55836;49.858;6.756;2023-02-07T15:06:28;4.43;;;3.47;;
68680;SDS011;55836;49.858;6.756;2023-02-07T15:08:58;5.70;;;3.73;;
68680;SDS011;55836;49.858;6.756;2023-02-07T15:11:25;3.97;;;3.57;;
68680;SDS011;55836;49.858;6.756;2023-02-07T15:13:52;6.13;;;4.30;;
68680;SDS011;55836;49.858;6.756;2023-02-07T15:16:23;6.80;;;4.17;;
68680;SDS011;55836;49.858;6.756;2023-02-07T15:21:20;6.17;;;3.93;;
68680;SDS011;55836;49.858;6.756;2023-02-07T15:23:52;4.63;;;3.67;;
68680;SDS011;55836;49.858;6.756;2023-02-07T15:26:19;6.80;;;3.90;;
68680;SDS011;55836;49.858;6.756;2023-02-07T15:28:45;14.97;;;10.33;;
68680;SDS011;55836;49.858;6.756;2023-02-07T15:31:13;5.83;;;3.80;;
68680;SDS011;55836;49.858;6.756;2023-02-07T15:38:56;8.57;;;5.20;;
68680;SDS011;55836;49.858;6.756;2023-02-07T15:41:23;6.20;;;4.23;;
68680;SDS011;55836;49.858;6.756;2023-02-07T15:43:59;4.20;;;3.50;;
68680;SDS011;55836;49.858;6.756;2023-02-07T15:46:26;6.83;;;4.30;;
68680;SDS011;55836;49.858;6.756;2023-02-07T15:49:07;6.20;;;3.80;;
68680;SDS011;55836;49.858;6.756;2023-02-07T15:51:35;5.13;;;3.77;;
68680;SDS011;55836;49.858;6.756;2023-02-07T15:54:05;6.57;;;4.10;;
68680;SDS011;55836;49.858;6.756;2023-02-07T15:56:31;5.07;;;4.10;;
68680;SDS011;55836;49.858;6.756;2023-02-07T15:58:59;5.07;;;3.97;;
68680;SDS011;55836;49.858;6.756;2023-02-07T16:01:27;5.70;;;4.30;;
68680;SDS011;55836;49.858;6.756;2023-02-07T16:03:55;5.87;;;3.97;;
68680;SDS011;55836;49.858;6.756;2023-02-07T16:08:49;10.53;;;6.67;;
68680;SDS011;55836;49.858;6.756;2023-02-07T16:13:45;6.07;;;4.60;;
68680;SDS011;55836;49.858;6.756;2023-02-07T16:16:16;5.43;;;3.63;;
68680;SDS011;55836;49.858;6.756;2023-02-07T16:18:44;4.43;;;3.73;;
68680;SDS011;55836;49.858;6.756;2023-02-07T16:21:15;5.70;;;4.00;;
68680;SDS011;55836;49.858;6.756;2023-02-07T16:23:42;4.90;;;4.13;;
68680;SDS011;55836;49.858;6.756;2023-02-07T16:26:08;6.90;;;5.13;;
68680;SDS011;55836;49.858;6.756;2023-02-07T16:28:35;7.23;;;4.53;;
68680;SDS011;55836;49.858;6.756;2023-02-07T16:31:01;5.30;;;4.07;;
68680;SDS011;55836;49.858;6.756;2023-02-07T16:33:27;6.63;;;3.70;;
68680;SDS011;55836;49.858;6.756;2023-02-07T16:35:53;4.47;;;3.80;;
68680;SDS011;55836;49.858;6.756;2023-02-07T16:38:19;8.67;;;4.13;;
68680;SDS011;55836;49.858;6.756;2023-02-07T16:40:45;7.10;;;3.60;;
68680;SDS011;55836;49.858;6.756;2023-02-07T16:43:33;8.33;;;4.10;;
68680;SDS011;55836;49.858;6.756;2023-02-07T16:46:00;4.63;;;3.87;;
68680;SDS011;55836;49.858;6.756;2023-02-07T16:48:26;5.10;;;4.40;;
68680;SDS011;55836;49.858;6.756;2023-02-07T16:50:52;6.57;;;3.80;;
68680;SDS011;55836;49.858;6.756;2023-02-07T16:53:18;5.73;;;5.00;;
68680;SDS011;55836;49.858;6.756;2023-02-07T16:55:44;7.03;;;4.67;;
68680;SDS011;55836;49.858;6.756;2023-02-07T16:58:14;6.17;;;4.07;;
68680;SDS011;55836;49.858;6.756;2023-02-07T17:00:45;5.67;;;3.80;;
68680;SDS011;55836;49.858;6.756;2023-02-07T17:03:11;5.67;;;4.03;;
68680;SDS011;55836;49.858;6.756;2023-02-07T17:05:39;6.53;;;3.73;;
68680;SDS011;55836;49.858;6.756;2023-02-07T17:08:05;7.00;;;4.00;;
68680;SDS011;55836;49.858;6.756;2023-02-07T17:10:31;8.30;;;5.17;;
68680;SDS011;55836;49.858;6.756;2023-02-07T17:12:57;5.90;;;5.03;;
68680;SDS011;55836;49.858;6.756;2023-02-07T17:15:23;7.20;;;5.77;;
68680;SDS011;55836;49.858;6.756;2023-02-07T17:17:49;9.17;;;7.13;;
68680;SDS011;55836;49.858;6.756;2023-02-07T17:22:42;8.30;;;5.23;;
68680;SDS011;55836;49.858;6.756;2023-02-07T17:25:08;6.53;;;5.50;;